sensor_id;sensor_type;location;lat;lon;timestamp;P1;durP1;ratioP1;P2;durP2;ratioP2
5847;SDS011;8756;49.29324300;8.70599800;2022-12-18T00:01:19;61.47;;;32.80;;
5847;SDS011;8756;49.29324300;8.70599800;2022-12-18T00:03:51;62.10;;;29.40;;
5847;SDS011;8756;49.29324300;8.70599800;2022-12-18T00:06:19;63.23;;;32.27;;
5847;SDS011;8756;49.29324300;8.70599800;2022-12-18T00:08:45;66.23;;;34.57;;
5847;SDS011;8756;49.29324300;8.70599800;2022-12-18T00:11:13;84.13;;;35.47;;
5847;SDS011;8756;49.29324300;8.70599800;2022-12-18T00:13:41;73.67;;;33.90;;
5847;SDS011;8756;49.29324300;8.70599800;2022-12-18T00:16:09;81.13;;;35.07;;
5847;SDS011;8756;49.29324300;8.70599800;2022-12-18T00:18:40;77.87;;;33.87;;
5847;SDS011;8756;49.29324300;8.70599800;2022-12-18T00:21:07;76.87;;;34.93;;
5847;SDS011;8756;49.29324300;8.70599800;2022-12-18T00:23:38;77.77;;;37.00;;
5847;SDS011;8756;49.29324300;8.70599800;2022-12-18T00:26:07;80.40;;;36.60;;
5847;SDS011;8756;49.29324300;8.70599800;2022-12-18T00:28:36;80.63;;;35.57;;
5847;SDS011;8756;49.29324300;8.70599800;2022-12-18T00:31:09;76.80;;;32.47;;
5847;SDS011;8756;49.29324300;8.70599800;2022-12-18T00:33:38;77.10;;;35.37;;
5847;SDS011;8756;49.29324300;8.70599800;2022-12-18T00:36:08;81.50;;;33.27;;
5847;SDS011;8756;49.29324300;8.70599800;2022-12-18T00:38:37;71.13;;;33.90;;
5847;SDS011;8756;49.29324300;8.70599800;2022-12-18T00:41:03;66.00;;;33.17;;
5847;SDS011;8756;49.29324300;8.70599800;2022-12-18T00:43:33;69.73;;;33.73;;
5847;SDS011;8756;49.29324300;8.70599800;2022-12-18T00:46:00;70.43;;;33.13;;
5847;SDS011;8756;49.29324300;8.70599800;2022-12-18T00:48:26;70.07;;;34.00;;
5847;SDS011;8756;49.29324300;8.70599800;2022-12-18T00:50:52;77.17;;;37.07;;
5847;SDS011;8756;49.29324300;8.70599800;2022-12-18T00:53:17;79.27;;;34.70;;
5847;SDS011;8756;49.29324300;8.70599800;2022-12-18T00:55:43;78.93;;;33.27;;
5847;SDS011;8756;49.29324300;8.70599800;2022-12-18T00:58:10;80.73;;;33.93;;
5847;SDS011;8756;49.29324300;8.70599800;2022-12-18T01:00:37;69.83;;;32.23;;
5847;SDS011;8756;49.29324300;8.70599800;2022-12-18T01:03:03;71.30;;;34.10;;
5847;SDS011;8756;49.29324300;8.70599800;2022-12-18T01:05:30;71.60;;;33.63;;
5847;SDS011;8756;49.29324300;8.70599800;2022-12-18T01:07:58;68.77;;;30.77;;
5847;SDS011;8756;49.29324300;8.70599800;2022-12-18T01:10:24;95.77;;;38.33;;
5847;SDS011;8756;49.29324300;8.70599800;2022-12-18T01:12:51;114.00;;;41.43;;
5847;SDS011;8756;49.29324300;8.70599800;2022-12-18T01:15:17;129.23;;;49.37;;
5847;SDS011;8756;49.29324300;8.70599800;2022-12-18T01:17:43;124.03;;;47.70;;
5847;SDS011;8756;49.29324300;8.70599800;2022-12-18T01:20:10;110.10;;;44.13;;
5847;SDS011;8756;49.29324300;8.70599800;2022-12-18T01:22:37;117.57;;;45.90;;
5847;SDS011;8756;49.29324300;8.70599800;2022-12-18T01:25:04;72.13;;;35.30;;
5847;SDS011;8756;49.29324300;8.70599800;2022-12-18T01:27:30;109.60;;;44.33;;
5847;SDS011;8756;49.29324300;8.70599800;2022-12-18T01:29:58;106.47;;;40.07;;
5847;SDS011;8756;49.29324300;8.70599800;2022-12-18T01:32:24;90.10;;;40.67;;
5847;SDS011;8756;49.29324300;8.70599800;2022-12-18T01:34:49;82.40;;;36.30;;
5847;SDS011;8756;49.29324300;8.70599800;2022-12-18T01:37:15;80.33;;;34.70;;
5847;SDS011;8756;49.29324300;8.70599800;2022-12-18T01:39:41;108.87;;;43.40;;
5847;SDS011;8756;49.29324300;8.70599800;2022-12-18T01:42:13;155.27;;;51.40;;
5847;SDS011;8756;49.29324300;8.70599800;2022-12-18T01:52:43;52.13;;;29.40;;
5847;SDS011;8756;49.29324300;8.70599800;2022-12-18T01:55:14;62.93;;;31.67;;
5847;SDS011;8756;49.29324300;8.70599800;2022-12-18T01:57:44;60.90;;;30.70;;
5847;SDS011;8756;49.29324300;8.70599800;2022-12-18T02:00:16;56.93;;;30.70;;
5847;SDS011;8756;49.29324300;8.70599800;2022-12-18T02:02:45;63.00;;;31.67;;
5847;SDS011;8756;49.29324300;8.70599800;2022-12-18T02:05:11;57.10;;;32.33;;
5847;SDS011;8756;49.29324300;8.70599800;2022-12-18T02:07:48;59.60;;;30.73;;
5847;SDS011;8756;49.29324300;8.70599800;2022-12-18T02:13:28;66.03;;;31.40;;
5847;SDS011;8756;49.29324300;8.70599800;2022-12-18T02:16:34;63.00;;;32.73;;
5847;SDS011;8756;49.29324300;8.70599800;2022-12-18T02:27:32;57.97;;;31.33;;
5847;SDS011;8756;49.29324300;8.70599800;2022-12-18T02:30:00;59.63;;;32.30;;
5847;SDS011;8756;49.29324300;8.70599800;2022-12-18T02:32:39;60.17;;;30.63;;
5847;SDS011;8756;49.29324300;8.70599800;2022-12-18T02:35:11;56.07;;;30.50;;
5847;SDS011;8756;49.29324300;8.70599800;2022-12-18T02:37:42;53.30;;;27.43;;
5847;SDS011;8756;49.29324300;8.70599800;2022-12-18T02:40:11;57.27;;;32.30;;
5847;SDS011;8756;49.29324300;8.70599800;2022-12-18T02:42:39;61.70;;;30.00;;
5847;SDS011;8756;49.29324300;8.70599800;2022-12-18T02:45:05;59.33;;;30.50;;
5847;SDS011;8756;49.29324300;8.70599800;2022-12-18T02:47:32;56.50;;;31.10;;
5847;SDS011;8756;49.29324300;8.70599800;2022-12-18T02:55:58;53.33;;;29.90;;
5847;SDS011;8756;49.29324300;8.70599800;2022-12-18T03:01:30;59.60;;;29.93;;
5847;SDS011;8756;49.29324300;8.70599800;2022-12-18T03:04:23;61.37;;;29.67;;
5847;SDS011;8756;49.29324300;8.70599800;2022-12-18T03:06:59;57.53;;;28.10;;
5847;SDS011;8756;49.29324300;8.70599800;2022-12-18T03:09:37;56.83;;;30.90;;
5847;SDS011;8756;49.29324300;8.70599800;2022-12-18T03:12:30;58.87;;;31.67;;
5847;SDS011;8756;49.29324300;8.70599800;2022-12-18T03:15:14;53.17;;;32.70;;
5847;SDS011;8756;49.29324300;8.70599800;2022-12-18T03:17:59;53.70;;;29.30;;
5847;SDS011;8756;49.29324300;8.70599800;2022-12-18T03:20:31;56.57;;;32.60;;
5847;SDS011;8756;49.29324300;8.70599800;2022-12-18T03:23:02;63.20;;;32.00;;
5847;SDS011;8756;49.29324300;8.70599800;2022-12-18T03:25:34;68.80;;;31.60;;
5847;SDS011;8756;49.29324300;8.70599800;2022-12-18T03:28:05;63.80;;;32.20;;
5847;SDS011;8756;49.29324300;8.70599800;2022-12-18T03:30:33;70.80;;;32.20;;
5847;SDS011;8756;49.29324300;8.70599800;2022-12-18T03:33:37;57.23;;;30.40;;
5847;SDS011;8756;49.29324300;8.70599800;2022-12-18T03:36:00;62.40;;;30.83;;
5847;SDS011;8756;49.29324300;8.70599800;2022-12-18T03:38:26;60.20;;;30.63;;
5847;SDS011;8756;49.29324300;8.70599800;2022-12-18T03:44:06;61.50;;;34.67;;
5847;SDS011;8756;49.29324300;8.70599800;2022-12-18T03:54:53;63.77;;;34.63;;
5847;SDS011;8756;49.29324300;8.70599800;2022-12-18T03:57:21;63.47;;;31.03;;
5847;SDS011;8756;49.29324300;8.70599800;2022-12-18T03:59:54;58.40;;;32.83;;
5847;SDS011;8756;49.29324300;8.70599800;2022-12-18T04:02:24;55.40;;;29.07;;
5847;SDS011;8756;49.29324300;8.70599800;2022-12-18T04:04:51;59.27;;;30.77;;
5847;SDS011;8756;49.29324300;8.70599800;2022-12-18T04:07:21;69.40;;;33.73;;
5847;SDS011;8756;49.29324300;8.70599800;2022-12-18T04:09:48;63.60;;;32.73;;
5847;SDS011;8756;49.29324300;8.70599800;2022-12-18T04:12:16;65.87;;;33.73;;
5847;SDS011;8756;49.29324300;8.70599800;2022-12-18T04:14:42;56.97;;;32.63;;
5847;SDS011;8756;49.29324300;8.70599800;2022-12-18T04:17:08;66.33;;;33.13;;
5847;SDS011;8756;49.29324300;8.70599800;2022-12-18T04:19:34;60.97;;;30.33;;
5847;SDS011;8756;49.29324300;8.70599800;2022-12-18T04:21:59;65.77;;;31.40;;
5847;SDS011;8756;49.29324300;8.70599800;2022-12-18T04:24:25;66.20;;;30.07;;
5847;SDS011;8756;49.29324300;8.70599800;2022-12-18T04:26:51;67.30;;;32.83;;
5847;SDS011;8756;49.29324300;8.70599800;2022-12-18T04:29:16;53.80;;;31.87;;
5847;SDS011;8756;49.29324300;8.70599800;2022-12-18T04:31:42;71.97;;;34.77;;
5847;SDS011;8756;49.29324300;8.70599800;2022-12-18T04:34:08;65.77;;;30.87;;
5847;SDS011;8756;49.29324300;8.70599800;2022-12-18T04:36:33;61.60;;;31.70;;
5847;SDS011;8756;49.29324300;8.70599800;2022-12-18T04:39:02;67.07;;;33.13;;
5847;SDS011;8756;49.29324300;8.70599800;2022-12-18T04:41:27;59.33;;;33.00;;
5847;SDS011;8756;49.29324300;8.70599800;2022-12-18T04:43:53;67.17;;;36.60;;
5847;SDS011;8756;49.29324300;8.70599800;2022-12-18T04:46:19;63.93;;;31.87;;
5847;SDS011;8756;49.29324300;8.70599800;2022-12-18T04:48:45;59.73;;;33.33;;
5847;SDS011;8756;49.29324300;8.70599800;2022-12-18T04:51:12;64.43;;;35.90;;
5847;SDS011;8756;49.29324300;8.70599800;2022-12-18T04:53:37;68.57;;;37.43;;
5847;SDS011;8756;49.29324300;8.70599800;2022-12-18T04:58:31;70.17;;;38.37;;
5847;SDS011;8756;49.29324300;8.70599800;2022-12-18T05:00:58;61.20;;;32.97;;
5847;SDS011;8756;49.29324300;8.70599800;2022-12-18T05:03:23;73.90;;;38.17;;
5847;SDS011;8756;49.29324300;8.70599800;2022-12-18T05:05:49;62.03;;;35.77;;
5847;SDS011;8756;49.29324300;8.70599800;2022-12-18T05:08:16;63.20;;;37.90;;
5847;SDS011;8756;49.29324300;8.70599800;2022-12-18T05:10:42;69.37;;;36.87;;
5847;SDS011;8756;49.29324300;8.70599800;2022-12-18T05:13:08;65.10;;;35.57;;
5847;SDS011;8756;49.29324300;8.70599800;2022-12-18T05:15:34;61.80;;;33.30;;
5847;SDS011;8756;49.29324300;8.70599800;2022-12-18T05:18:00;65.97;;;34.13;;
5847;SDS011;8756;49.29324300;8.70599800;2022-12-18T05:20:26;72.80;;;37.37;;
5847;SDS011;8756;49.29324300;8.70599800;2022-12-18T05:22:52;67.33;;;37.87;;
5847;SDS011;8756;49.29324300;8.70599800;2022-12-18T05:25:19;66.73;;;34.27;;
5847;SDS011;8756;49.29324300;8.70599800;2022-12-18T05:27:45;72.43;;;37.30;;
5847;SDS011;8756;49.29324300;8.70599800;2022-12-18T05:30:12;69.00;;;36.20;;
5847;SDS011;8756;49.29324300;8.70599800;2022-12-18T05:32:38;68.20;;;34.53;;
5847;SDS011;8756;49.29324300;8.70599800;2022-12-18T05:35:05;73.40;;;34.90;;
5847;SDS011;8756;49.29324300;8.70599800;2022-12-18T05:37:32;68.13;;;36.13;;
5847;SDS011;8756;49.29324300;8.70599800;2022-12-18T05:39:58;65.30;;;34.43;;
5847;SDS011;8756;49.29324300;8.70599800;2022-12-18T05:42:24;67.47;;;36.40;;
5847;SDS011;8756;49.29324300;8.70599800;2022-12-18T05:44:50;67.57;;;34.00;;
5847;SDS011;8756;49.29324300;8.70599800;2022-12-18T05:47:15;62.90;;;35.00;;
5847;SDS011;8756;49.29324300;8.70599800;2022-12-18T05:49:41;70.97;;;34.70;;
5847;SDS011;8756;49.29324300;8.70599800;2022-12-18T05:52:09;66.37;;;34.43;;
5847;SDS011;8756;49.29324300;8.70599800;2022-12-18T05:54:37;66.03;;;34.17;;
5847;SDS011;8756;49.29324300;8.70599800;2022-12-18T05:57:04;68.40;;;36.20;;
5847;SDS011;8756;49.29324300;8.70599800;2022-12-18T05:59:29;61.37;;;34.93;;
5847;SDS011;8756;49.29324300;8.70599800;2022-12-18T06:01:55;58.33;;;31.70;;
5847;SDS011;8756;49.29324300;8.70599800;2022-12-18T06:04:20;61.93;;;31.93;;
5847;SDS011;8756;49.29324300;8.70599800;2022-12-18T06:06:47;70.47;;;37.90;;
5847;SDS011;8756;49.29324300;8.70599800;2022-12-18T06:09:13;64.57;;;34.63;;
5847;SDS011;8756;49.29324300;8.70599800;2022-12-18T06:11:38;63.00;;;35.07;;
5847;SDS011;8756;49.29324300;8.70599800;2022-12-18T06:14:04;69.93;;;35.13;;
5847;SDS011;8756;49.29324300;8.70599800;2022-12-18T06:16:33;65.17;;;34.80;;
5847;SDS011;8756;49.29324300;8.70599800;2022-12-18T06:18:59;62.23;;;32.13;;
5847;SDS011;8756;49.29324300;8.70599800;2022-12-18T06:21:28;70.13;;;36.90;;
5847;SDS011;8756;49.29324300;8.70599800;2022-12-18T06:23:54;64.70;;;36.90;;
5847;SDS011;8756;49.29324300;8.70599800;2022-12-18T06:26:20;76.73;;;38.37;;
5847;SDS011;8756;49.29324300;8.70599800;2022-12-18T06:28:46;68.40;;;32.17;;
5847;SDS011;8756;49.29324300;8.70599800;2022-12-18T06:31:12;67.93;;;33.07;;
5847;SDS011;8756;49.29324300;8.70599800;2022-12-18T06:33:38;63.03;;;33.73;;
5847;SDS011;8756;49.29324300;8.70599800;2022-12-18T06:36:08;68.13;;;32.97;;
5847;SDS011;8756;49.29324300;8.70599800;2022-12-18T06:38:38;62.27;;;33.13;;
5847;SDS011;8756;49.29324300;8.70599800;2022-12-18T06:41:11;74.33;;;35.67;;
5847;SDS011;8756;49.29324300;8.70599800;2022-12-18T06:43:41;60.17;;;33.93;;
5847;SDS011;8756;49.29324300;8.70599800;2022-12-18T06:46:08;71.03;;;37.13;;
5847;SDS011;8756;49.29324300;8.70599800;2022-12-18T06:48:35;80.97;;;37.87;;
5847;SDS011;8756;49.29324300;8.70599800;2022-12-18T06:51:01;68.30;;;33.13;;
5847;SDS011;8756;49.29324300;8.70599800;2022-12-18T06:53:27;76.30;;;37.30;;
5847;SDS011;8756;49.29324300;8.70599800;2022-12-18T06:55:59;71.33;;;35.73;;
5847;SDS011;8756;49.29324300;8.70599800;2022-12-18T06:58:30;68.17;;;36.97;;
5847;SDS011;8756;49.29324300;8.70599800;2022-12-18T07:01:00;64.90;;;34.50;;
5847;SDS011;8756;49.29324300;8.70599800;2022-12-18T07:03:27;65.33;;;36.77;;
5847;SDS011;8756;49.29324300;8.70599800;2022-12-18T07:05:56;69.50;;;34.77;;
5847;SDS011;8756;49.29324300;8.70599800;2022-12-18T07:08:21;74.50;;;37.90;;
5847;SDS011;8756;49.29324300;8.70599800;2022-12-18T07:10:47;71.13;;;36.90;;
5847;SDS011;8756;49.29324300;8.70599800;2022-12-18T07:13:14;73.07;;;36.33;;
5847;SDS011;8756;49.29324300;8.70599800;2022-12-18T07:15:41;71.27;;;35.57;;
5847;SDS011;8756;49.29324300;8.70599800;2022-12-18T07:18:06;67.20;;;36.23;;
5847;SDS011;8756;49.29324300;8.70599800;2022-12-18T07:20:32;74.27;;;36.33;;
5847;SDS011;8756;49.29324300;8.70599800;2022-12-18T07:22:58;70.90;;;37.97;;
5847;SDS011;8756;49.29324300;8.70599800;2022-12-18T07:25:24;77.67;;;34.47;;
5847;SDS011;8756;49.29324300;8.70599800;2022-12-18T07:27:49;69.57;;;39.80;;
5847;SDS011;8756;49.29324300;8.70599800;2022-12-18T07:30:15;77.17;;;42.57;;
5847;SDS011;8756;49.29324300;8.70599800;2022-12-18T07:32:41;74.93;;;36.20;;
5847;SDS011;8756;49.29324300;8.70599800;2022-12-18T07:35:06;77.23;;;37.10;;
5847;SDS011;8756;49.29324300;8.70599800;2022-12-18T07:37:32;65.73;;;36.80;;
5847;SDS011;8756;49.29324300;8.70599800;2022-12-18T07:39:58;75.03;;;36.70;;
5847;SDS011;8756;49.29324300;8.70599800;2022-12-18T07:42:23;71.60;;;35.17;;
5847;SDS011;8756;49.29324300;8.70599800;2022-12-18T07:44:58;65.67;;;34.70;;
5847;SDS011;8756;49.29324300;8.70599800;2022-12-18T07:47:25;70.33;;;37.30;;
5847;SDS011;8756;49.29324300;8.70599800;2022-12-18T07:49:51;71.90;;;39.27;;
5847;SDS011;8756;49.29324300;8.70599800;2022-12-18T07:52:17;69.80;;;32.83;;
5847;SDS011;8756;49.29324300;8.70599800;2022-12-18T07:54:43;74.57;;;37.57;;
5847;SDS011;8756;49.29324300;8.70599800;2022-12-18T07:57:09;77.03;;;35.33;;
5847;SDS011;8756;49.29324300;8.70599800;2022-12-18T07:59:34;69.87;;;34.80;;
5847;SDS011;8756;49.29324300;8.70599800;2022-12-18T08:02:00;69.43;;;33.70;;
5847;SDS011;8756;49.29324300;8.70599800;2022-12-18T08:04:26;65.77;;;32.27;;
5847;SDS011;8756;49.29324300;8.70599800;2022-12-18T08:06:52;69.67;;;35.90;;
5847;SDS011;8756;49.29324300;8.70599800;2022-12-18T08:09:17;68.97;;;38.80;;
5847;SDS011;8756;49.29324300;8.70599800;2022-12-18T08:11:43;61.70;;;33.63;;
5847;SDS011;8756;49.29324300;8.70599800;2022-12-18T08:14:09;66.00;;;33.63;;
5847;SDS011;8756;49.29324300;8.70599800;2022-12-18T08:16:35;65.60;;;32.80;;
5847;SDS011;8756;49.29324300;8.70599800;2022-12-18T08:19:01;73.27;;;39.33;;
5847;SDS011;8756;49.29324300;8.70599800;2022-12-18T08:21:30;72.67;;;40.03;;
5847;SDS011;8756;49.29324300;8.70599800;2022-12-18T08:23:57;61.80;;;33.47;;
5847;SDS011;8756;49.29324300;8.70599800;2022-12-18T08:26:26;63.77;;;37.83;;
5847;SDS011;8756;49.29324300;8.70599800;2022-12-18T08:28:55;73.77;;;38.67;;
5847;SDS011;8756;49.29324300;8.70599800;2022-12-18T08:31:23;69.30;;;36.53;;
5847;SDS011;8756;49.29324300;8.70599800;2022-12-18T08:33:51;73.43;;;38.87;;
5847;SDS011;8756;49.29324300;8.70599800;2022-12-18T08:36:20;74.30;;;35.67;;
5847;SDS011;8756;49.29324300;8.70599800;2022-12-18T08:38:47;58.43;;;29.17;;
5847;SDS011;8756;49.29324300;8.70599800;2022-12-18T08:41:15;72.70;;;39.37;;
5847;SDS011;8756;49.29324300;8.70599800;2022-12-18T08:43:42;76.43;;;39.53;;
5847;SDS011;8756;49.29324300;8.70599800;2022-12-18T08:46:27;68.27;;;31.73;;
5847;SDS011;8756;49.29324300;8.70599800;2022-12-18T08:49:00;72.33;;;31.53;;
5847;SDS011;8756;49.29324300;8.70599800;2022-12-18T08:51:27;74.30;;;36.87;;
5847;SDS011;8756;49.29324300;8.70599800;2022-12-18T08:53:52;63.53;;;34.10;;
5847;SDS011;8756;49.29324300;8.70599800;2022-12-18T08:56:18;68.13;;;35.00;;
5847;SDS011;8756;49.29324300;8.70599800;2022-12-18T08:58:44;66.43;;;33.30;;
5847;SDS011;8756;49.29324300;8.70599800;2022-12-18T09:01:10;62.57;;;32.63;;
5847;SDS011;8756;49.29324300;8.70599800;2022-12-18T09:03:37;73.90;;;34.10;;
5847;SDS011;8756;49.29324300;8.70599800;2022-12-18T09:06:04;61.50;;;30.83;;
5847;SDS011;8756;49.29324300;8.70599800;2022-12-18T09:08:30;68.53;;;34.63;;
5847;SDS011;8756;49.29324300;8.70599800;2022-12-18T09:10:56;66.30;;;34.90;;
5847;SDS011;8756;49.29324300;8.70599800;2022-12-18T09:13:22;66.93;;;33.97;;
5847;SDS011;8756;49.29324300;8.70599800;2022-12-18T09:15:49;71.77;;;35.17;;
5847;SDS011;8756;49.29324300;8.70599800;2022-12-18T09:18:19;78.50;;;38.03;;
5847;SDS011;8756;49.29324300;8.70599800;2022-12-18T09:20:46;72.60;;;38.47;;
5847;SDS011;8756;49.29324300;8.70599800;2022-12-18T09:23:12;64.37;;;32.27;;
5847;SDS011;8756;49.29324300;8.70599800;2022-12-18T09:25:39;72.03;;;34.67;;
5847;SDS011;8756;49.29324300;8.70599800;2022-12-18T09:28:06;63.77;;;33.63;;
5847;SDS011;8756;49.29324300;8.70599800;2022-12-18T09:30:46;63.23;;;29.83;;
5847;SDS011;8756;49.29324300;8.70599800;2022-12-18T09:33:14;62.67;;;31.37;;
5847;SDS011;8756;49.29324300;8.70599800;2022-12-18T09:35:42;65.70;;;34.77;;
5847;SDS011;8756;49.29324300;8.70599800;2022-12-18T09:38:11;72.83;;;34.87;;
5847;SDS011;8756;49.29324300;8.70599800;2022-12-18T09:40:44;68.90;;;32.40;;
5847;SDS011;8756;49.29324300;8.70599800;2022-12-18T09:43:18;62.63;;;32.93;;
5847;SDS011;8756;49.29324300;8.70599800;2022-12-18T09:46:02;63.47;;;33.93;;
5847;SDS011;8756;49.29324300;8.70599800;2022-12-18T09:48:36;75.00;;;38.53;;
5847;SDS011;8756;49.29324300;8.70599800;2022-12-18T09:51:15;63.20;;;33.63;;
5847;SDS011;8756;49.29324300;8.70599800;2022-12-18T09:54:20;65.60;;;34.63;;
5847;SDS011;8756;49.29324300;8.70599800;2022-12-18T09:56:55;60.57;;;29.63;;
5847;SDS011;8756;49.29324300;8.70599800;2022-12-18T10:02:11;64.27;;;32.20;;
5847;SDS011;8756;49.29324300;8.70599800;2022-12-18T10:04:59;66.70;;;33.13;;
5847;SDS011;8756;49.29324300;8.70599800;2022-12-18T10:07:37;73.90;;;37.80;;
5847;SDS011;8756;49.29324300;8.70599800;2022-12-18T10:10:22;64.13;;;32.80;;
5847;SDS011;8756;49.29324300;8.70599800;2022-12-18T10:13:07;70.97;;;35.70;;
5847;SDS011;8756;49.29324300;8.70599800;2022-12-18T10:16:06;65.00;;;32.30;;
5847;SDS011;8756;49.29324300;8.70599800;2022-12-18T10:19:18;68.97;;;33.17;;
5847;SDS011;8756;49.29324300;8.70599800;2022-12-18T10:25:28;67.80;;;33.97;;
5847;SDS011;8756;49.29324300;8.70599800;2022-12-18T10:28:10;57.50;;;31.30;;
5847;SDS011;8756;49.29324300;8.70599800;2022-12-18T10:30:41;65.50;;;36.30;;
5847;SDS011;8756;49.29324300;8.70599800;2022-12-18T10:33:11;63.37;;;32.27;;
5847;SDS011;8756;49.29324300;8.70599800;2022-12-18T10:35:42;60.90;;;30.47;;
5847;SDS011;8756;49.29324300;8.70599800;2022-12-18T10:40:48;57.73;;;29.57;;
5847;SDS011;8756;49.29324300;8.70599800;2022-12-18T10:43:34;60.83;;;29.80;;
5847;SDS011;8756;49.29324300;8.70599800;2022-12-18T10:46:14;65.43;;;31.00;;
5847;SDS011;8756;49.29324300;8.70599800;2022-12-18T10:51:22;72.27;;;32.87;;
5847;SDS011;8756;49.29324300;8.70599800;2022-12-18T10:53:54;70.10;;;32.87;;
5847;SDS011;8756;49.29324300;8.70599800;2022-12-18T10:56:25;67.83;;;34.77;;
5847;SDS011;8756;49.29324300;8.70599800;2022-12-18T10:59:04;69.00;;;30.40;;
5847;SDS011;8756;49.29324300;8.70599800;2022-12-18T11:06:54;59.07;;;30.90;;
5847;SDS011;8756;49.29324300;8.70599800;2022-12-18T11:09:37;72.63;;;31.80;;
5847;SDS011;8756;49.29324300;8.70599800;2022-12-18T11:12:26;64.10;;;31.37;;
5847;SDS011;8756;49.29324300;8.70599800;2022-12-18T11:14:53;62.73;;;29.37;;
5847;SDS011;8756;49.29324300;8.70599800;2022-12-18T11:20:06;63.83;;;31.50;;
5847;SDS011;8756;49.29324300;8.70599800;2022-12-18T11:22:56;69.80;;;30.70;;
5847;SDS011;8756;49.29324300;8.70599800;2022-12-18T11:25:28;57.37;;;28.70;;
5847;SDS011;8756;49.29324300;8.70599800;2022-12-18T11:27:59;59.67;;;28.00;;
5847;SDS011;8756;49.29324300;8.70599800;2022-12-18T11:30:30;64.00;;;29.60;;
5847;SDS011;8756;49.29324300;8.70599800;2022-12-18T11:33:13;64.40;;;31.40;;
5847;SDS011;8756;49.29324300;8.70599800;2022-12-18T11:35:49;64.17;;;29.37;;
5847;SDS011;8756;49.29324300;8.70599800;2022-12-18T11:38:29;67.00;;;30.53;;
5847;SDS011;8756;49.29324300;8.70599800;2022-12-18T11:47:49;79.03;;;34.30;;
5847;SDS011;8756;49.29324300;8.70599800;2022-12-18T11:53:20;64.07;;;33.50;;
5847;SDS011;8756;49.29324300;8.70599800;2022-12-18T11:56:02;61.30;;;29.20;;
5847;SDS011;8756;49.29324300;8.70599800;2022-12-18T12:02:11;66.07;;;27.50;;
5847;SDS011;8756;49.29324300;8.70599800;2022-12-18T12:07:57;56.00;;;28.17;;
5847;SDS011;8756;49.29324300;8.70599800;2022-12-18T12:11:25;57.17;;;28.60;;
5847;SDS011;8756;49.29324300;8.70599800;2022-12-18T12:20:01;56.40;;;27.97;;
5847;SDS011;8756;49.29324300;8.70599800;2022-12-18T12:23:05;58.23;;;28.67;;
5847;SDS011;8756;49.29324300;8.70599800;2022-12-18T12:26:01;55.67;;;27.90;;
5847;SDS011;8756;49.29324300;8.70599800;2022-12-18T12:28:58;55.00;;;27.80;;
5847;SDS011;8756;49.29324300;8.70599800;2022-12-18T12:40:41;52.53;;;27.43;;
5847;SDS011;8756;49.29324300;8.70599800;2022-12-18T12:43:34;58.90;;;29.93;;
5847;SDS011;8756;49.29324300;8.70599800;2022-12-18T12:46:12;58.90;;;27.83;;
5847;SDS011;8756;49.29324300;8.70599800;2022-12-18T12:48:48;56.77;;;27.50;;
5847;SDS011;8756;49.29324300;8.70599800;2022-12-18T12:51:25;56.37;;;25.93;;
5847;SDS011;8756;49.29324300;8.70599800;2022-12-18T12:53:57;57.93;;;27.67;;
5847;SDS011;8756;49.29324300;8.70599800;2022-12-18T12:56:30;58.87;;;27.33;;
5847;SDS011;8756;49.29324300;8.70599800;2022-12-18T12:59:40;57.40;;;27.70;;
5847;SDS011;8756;49.29324300;8.70599800;2022-12-18T13:13:09;58.40;;;27.90;;
5847;SDS011;8756;49.29324300;8.70599800;2022-12-18T13:18:29;55.53;;;26.97;;
5847;SDS011;8756;49.29324300;8.70599800;2022-12-18T13:25:55;54.40;;;26.57;;
5847;SDS011;8756;49.29324300;8.70599800;2022-12-18T13:29:08;56.57;;;27.00;;
5847;SDS011;8756;49.29324300;8.70599800;2022-12-18T13:34:24;52.27;;;26.03;;
5847;SDS011;8756;49.29324300;8.70599800;2022-12-18T13:36:53;52.03;;;25.13;;
5847;SDS011;8756;49.29324300;8.70599800;2022-12-18T13:39:26;58.70;;;28.30;;
5847;SDS011;8756;49.29324300;8.70599800;2022-12-18T13:44:33;63.40;;;27.30;;
5847;SDS011;8756;49.29324300;8.70599800;2022-12-18T13:47:02;65.67;;;31.10;;
5847;SDS011;8756;49.29324300;8.70599800;2022-12-18T13:52:17;50.80;;;26.70;;
5847;SDS011;8756;49.29324300;8.70599800;2022-12-18T13:54:51;63.53;;;28.90;;
5847;SDS011;8756;49.29324300;8.70599800;2022-12-18T13:59:56;56.33;;;30.20;;
5847;SDS011;8756;49.29324300;8.70599800;2022-12-18T14:02:25;61.07;;;28.80;;
5847;SDS011;8756;49.29324300;8.70599800;2022-12-18T14:04:53;64.03;;;31.93;;
5847;SDS011;8756;49.29324300;8.70599800;2022-12-18T14:07:24;63.70;;;29.60;;
5847;SDS011;8756;49.29324300;8.70599800;2022-12-18T14:09:54;59.30;;;27.23;;
5847;SDS011;8756;49.29324300;8.70599800;2022-12-18T14:12:27;61.57;;;29.23;;
5847;SDS011;8756;49.29324300;8.70599800;2022-12-18T14:17:54;63.80;;;29.77;;
5847;SDS011;8756;49.29324300;8.70599800;2022-12-18T14:20:46;58.80;;;28.00;;
5847;SDS011;8756;49.29324300;8.70599800;2022-12-18T14:26:03;66.87;;;31.60;;
5847;SDS011;8756;49.29324300;8.70599800;2022-12-18T14:28:55;63.87;;;31.40;;
5847;SDS011;8756;49.29324300;8.70599800;2022-12-18T14:31:23;63.37;;;32.00;;
5847;SDS011;8756;49.29324300;8.70599800;2022-12-18T14:33:51;62.07;;;29.70;;
5847;SDS011;8756;49.29324300;8.70599800;2022-12-18T14:36:19;64.47;;;29.57;;
5847;SDS011;8756;49.29324300;8.70599800;2022-12-18T14:38:48;66.70;;;29.60;;
5847;SDS011;8756;49.29324300;8.70599800;2022-12-18T14:41:17;74.73;;;32.77;;
5847;SDS011;8756;49.29324300;8.70599800;2022-12-18T14:43:44;59.63;;;30.30;;
5847;SDS011;8756;49.29324300;8.70599800;2022-12-18T14:46:27;70.07;;;31.43;;
5847;SDS011;8756;49.29324300;8.70599800;2022-12-18T14:51:56;59.70;;;29.03;;
5847;SDS011;8756;49.29324300;8.70599800;2022-12-18T14:54:28;66.83;;;28.73;;
5847;SDS011;8756;49.29324300;8.70599800;2022-12-18T14:56:58;65.37;;;29.13;;
5847;SDS011;8756;49.29324300;8.70599800;2022-12-18T14:59:26;49.90;;;27.10;;
5847;SDS011;8756;49.29324300;8.70599800;2022-12-18T15:04:46;67.23;;;29.50;;
5847;SDS011;8756;49.29324300;8.70599800;2022-12-18T15:07:22;59.83;;;28.37;;
5847;SDS011;8756;49.29324300;8.70599800;2022-12-18T15:20:42;64.67;;;28.40;;
5847;SDS011;8756;49.29324300;8.70599800;2022-12-18T15:26:05;65.33;;;29.50;;
5847;SDS011;8756;49.29324300;8.70599800;2022-12-18T15:28:49;64.67;;;31.97;;
5847;SDS011;8756;49.29324300;8.70599800;2022-12-18T15:33:42;61.90;;;30.83;;
5847;SDS011;8756;49.29324300;8.70599800;2022-12-18T15:36:24;63.40;;;30.40;;
5847;SDS011;8756;49.29324300;8.70599800;2022-12-18T15:38:50;57.80;;;29.30;;
5847;SDS011;8756;49.29324300;8.70599800;2022-12-18T15:41:19;63.63;;;30.77;;